createdAt,value
2023-03-15T00:00:07.078Z,80.84
2023-03-15T00:01:07.077Z,80.15
2023-03-15T00:02:07.064Z,80.98
2023-03-15T00:05:07.012Z,81.12
2023-03-15T00:06:07.003Z,81.92
2023-03-15T00:07:06.998Z,81.29
2023-03-15T00:08:06.975Z,81.50
2023-03-15T00:09:06.966Z,82.70
2023-03-15T00:10:06.954Z,81.05
2023-03-15T00:11:06.946Z,81.98
2023-03-15T00:12:06.953Z,81.12
2023-03-15T00:13:06.929Z,80.12
2023-03-15T00:14:06.919Z,80.81
2023-03-15T00:15:06.904Z,79.91
2023-03-15T00:16:06.911Z,81.36
2023-03-15T00:17:06.900Z,81.67
2023-03-15T00:18:06.867Z,81.84
2023-03-15T00:19:06.858Z,80.63
2023-03-15T00:21:06.840Z,80.08
2023-03-15T00:22:06.825Z,80.53
2023-03-15T00:23:06.821Z,81.32
2023-03-15T00:24:06.804Z,81.12
2023-03-15T00:25:06.792Z,80.32
2023-03-15T00:26:06.779Z,81.46
2023-03-15T00:27:06.772Z,82.04
2023-03-15T00:28:06.773Z,80.60
2023-03-15T00:29:06.760Z,79.60
2023-03-15T00:31:06.769Z,80.36
2023-03-15T00:33:06.728Z,82.02
2023-03-15T00:34:06.696Z,81.19
2023-03-15T00:36:06.742Z,81.02
2023-03-15T00:37:06.664Z,82.23
2023-03-15T00:38:06.652Z,80.63
2023-03-15T00:39:06.649Z,80.95
2023-03-15T00:41:06.624Z,80.81
2023-03-15T00:42:06.616Z,81.64
2023-03-15T00:43:06.602Z,82.60
2023-03-15T00:44:06.589Z,81.26
2023-03-15T00:45:06.584Z,80.63
2023-03-15T00:46:06.693Z,81.26
2023-03-15T00:47:06.556Z,81.67
2023-03-15T00:48:06.545Z,81.71
2023-03-15T00:49:06.562Z,81.75
2023-03-15T00:50:06.536Z,82.16
2023-03-15T00:51:06.521Z,82.54
2023-03-15T00:52:06.506Z,81.81
2023-03-15T00:53:06.492Z,81.75
2023-03-15T00:54:06.505Z,82.44
2023-03-15T00:55:06.472Z,82.06
2023-03-15T00:56:06.473Z,81.95
2023-03-15T00:57:06.450Z,82.58
2023-03-15T00:59:06.428Z,83.47
2023-03-15T01:00:06.418Z,82.95
2023-03-15T01:02:06.469Z,82.70
2023-03-15T01:03:06.444Z,82.25
2023-03-15T01:04:06.380Z,80.67
2023-03-15T01:06:06.363Z,83.02
2023-03-15T01:07:06.359Z,81.98
2023-03-15T01:08:06.341Z,82.46
2023-03-15T01:09:06.322Z,81.32
2023-03-15T01:10:06.314Z,81.46
2023-03-15T01:11:06.305Z,81.67
2023-03-15T01:13:06.289Z,80.77
2023-03-15T01:14:06.270Z,81.12
2023-03-15T01:15:06.256Z,81.64
2023-03-15T01:16:06.322Z,81.73
2023-03-15T01:17:06.235Z,82.04
2023-03-15T01:18:06.241Z,81.73
2023-03-15T01:19:06.255Z,81.84
2023-03-15T01:20:06.221Z,81.88
2023-03-15T01:21:06.221Z,82.29
2023-03-15T01:22:06.184Z,82.98
2023-03-15T01:23:06.175Z,82.36
2023-03-15T01:24:06.176Z,82.25
2023-03-15T01:25:06.148Z,83.02
2023-03-15T01:26:06.141Z,82.81
2023-03-15T01:27:06.142Z,83.81
2023-03-15T01:28:06.120Z,82.87
2023-03-15T01:29:06.114Z,82.04
2023-03-15T01:30:06.101Z,83.19
2023-03-15T01:31:06.183Z,82.98
2023-03-15T01:32:06.078Z,82.63
2023-03-15T01:33:06.065Z,82.49
2023-03-15T01:34:06.057Z,81.14
2023-03-15T01:35:06.042Z,82.49
2023-03-15T01:36:06.098Z,81.66
2023-03-15T01:37:06.040Z,82.11
2023-03-15T01:38:06.014Z,81.70
2023-03-15T01:39:06.000Z,82.77
2023-03-15T01:40:05.992Z,84.01
2023-03-15T01:41:05.978Z,83.66
2023-03-15T01:49:05.895Z,84.11
2023-03-15T01:50:05.887Z,84.32
2023-03-15T01:51:05.873Z,83.39
2023-03-15T01:52:05.864Z,83.91
2023-03-15T01:53:05.873Z,83.83
2023-03-15T01:54:05.852Z,82.94
2023-03-15T01:55:05.827Z,82.56
2023-03-15T01:56:05.821Z,83.63
2023-03-15T01:57:05.806Z,82.70
2023-03-15T02:03:05.744Z,83.81
2023-03-15T02:12:05.652Z,82.87
2023-03-15T02:13:05.637Z,83.47
2023-03-15T02:14:05.640Z,84.47
2023-03-15T02:15:05.620Z,84.47
2023-03-15T02:16:05.656Z,83.53
2023-03-15T02:17:05.606Z,84.05
2023-03-15T02:18:05.588Z,83.64
2023-03-15T02:19:05.609Z,83.85
2023-03-15T02:24:05.524Z,84.01
2023-03-15T02:25:05.530Z,83.53
2023-03-15T02:26:05.501Z,83.16
2023-03-15T02:27:05.602Z,84.88
2023-03-15T02:29:05.467Z,83.78
2023-03-15T02:30:05.459Z,83.47
2023-03-15T02:31:05.485Z,84.09
2023-03-15T02:32:05.510Z,84.26
2023-03-15T02:33:05.428Z,83.50
2023-03-15T02:34:05.417Z,82.87
2023-03-15T02:35:05.413Z,82.81
2023-03-15T02:36:05.431Z,83.39
2023-03-15T02:40:05.351Z,81.94
2023-03-15T02:42:05.331Z,83.64
2023-03-15T02:43:05.320Z,82.91
2023-03-15T02:44:05.317Z,83.02
2023-03-15T02:45:05.296Z,83.22
2023-03-15T02:46:05.387Z,83.39
2023-03-15T02:47:05.283Z,82.70
2023-03-15T02:48:05.270Z,82.81
2023-03-15T02:49:05.255Z,83.08
2023-03-15T02:50:05.247Z,83.39
2023-03-15T02:51:05.238Z,82.04
2023-03-15T02:52:05.242Z,82.15
2023-03-15T02:53:05.221Z,83.50
2023-03-15T02:54:05.206Z,82.84
2023-03-15T02:55:05.191Z,81.87
2023-03-15T02:57:05.194Z,82.18
2023-03-15T02:58:05.162Z,82.98
2023-03-15T03:00:05.141Z,82.25
2023-03-15T03:01:05.186Z,83.43
2023-03-15T03:06:05.081Z,83.25
2023-03-15T03:07:05.063Z,82.36
2023-03-15T03:08:05.077Z,82.87
2023-03-15T03:09:05.044Z,83.45
2023-03-15T03:10:05.037Z,82.32
2023-03-15T03:11:05.020Z,82.46
2023-03-15T03:12:05.012Z,83.29
2023-03-15T03:13:05.018Z,83.39
2023-03-15T03:14:04.993Z,82.91
2023-03-15T03:15:04.977Z,83.60
2023-03-15T03:16:04.968Z,83.87
2023-03-15T03:17:04.958Z,82.56
2023-03-15T03:18:04.947Z,82.70
2023-03-15T03:19:04.935Z,83.02
2023-03-15T03:20:04.928Z,83.43
2023-03-15T03:21:04.911Z,83.50
2023-03-15T03:23:04.890Z,83.05
2023-03-15T03:24:04.886Z,82.77
2023-03-15T03:25:04.876Z,82.98
2023-03-15T03:26:04.858Z,83.35
2023-03-15T03:27:04.852Z,82.77
2023-03-15T03:28:04.835Z,83.33
2023-03-15T03:29:04.852Z,83.81
2023-03-15T03:30:04.837Z,83.66
2023-03-15T03:31:04.919Z,82.36
2023-03-15T03:32:04.821Z,82.98
2023-03-15T03:33:04.780Z,83.22
2023-03-15T03:34:04.769Z,83.70
2023-03-15T03:35:04.757Z,83.25
2023-03-15T03:36:04.778Z,82.67
2023-03-15T03:37:04.730Z,83.29
2023-03-15T03:38:04.721Z,83.19
2023-03-15T03:39:04.718Z,83.19
2023-03-15T03:40:04.707Z,83.19
2023-03-15T03:41:04.687Z,83.25
2023-03-15T03:42:04.678Z,82.63
2023-03-15T03:43:04.667Z,81.70
2023-03-15T03:45:04.691Z,80.77
2023-03-15T03:46:04.706Z,81.73
2023-03-15T03:47:04.679Z,82.53
2023-03-15T03:48:04.668Z,81.18
2023-03-15T03:49:04.624Z,81.29
2023-03-15T03:50:04.601Z,81.94
2023-03-15T03:51:04.578Z,82.32
2023-03-15T03:52:04.571Z,81.39
2023-03-15T03:57:04.514Z,79.69
2023-03-15T03:58:04.504Z,80.70
2023-03-15T03:59:04.492Z,80.15
2023-03-15T04:00:04.482Z,79.94
2023-03-15T04:01:04.491Z,80.04
2023-03-15T04:02:04.461Z,79.63
2023-03-15T04:03:04.449Z,79.73
2023-03-15T04:04:04.440Z,80.39
2023-03-15T04:05:04.431Z,80.87
2023-03-15T04:06:04.417Z,80.87
2023-03-15T04:08:04.403Z,80.46
2023-03-15T04:09:04.384Z,80.67
2023-03-15T04:10:04.373Z,80.04
2023-03-15T04:11:04.364Z,80.98
2023-03-15T04:12:04.421Z,79.49
2023-03-15T04:14:04.338Z,79.87
2023-03-15T04:15:04.325Z,79.52
2023-03-15T04:16:04.439Z,79.49
2023-03-15T04:18:04.287Z,79.01
2023-03-15T04:19:04.284Z,80.15
2023-03-15T04:20:04.272Z,79.52
2023-03-15T04:21:04.264Z,79.32
2023-03-15T04:22:04.244Z,79.84
2023-03-15T04:23:04.241Z,79.59
2023-03-15T04:24:04.228Z,78.87
2023-03-15T04:25:04.211Z,79.29
2023-03-15T04:27:04.193Z,78.56
2023-03-15T04:28:04.182Z,77.90
2023-03-15T04:29:04.177Z,77.83
2023-03-15T04:30:04.165Z,78.11
2023-03-15T04:31:04.158Z,77.56
2023-03-15T04:35:04.107Z,78.52
2023-03-15T04:36:04.118Z,78.00
2023-03-15T04:37:04.088Z,78.35
2023-03-15T04:39:04.065Z,78.25
2023-03-15T04:40:04.055Z,77.80
2023-03-15T04:41:04.045Z,77.18
2023-03-15T04:42:04.034Z,77.74
2023-03-15T04:43:04.025Z,77.53
2023-03-15T04:45:04.006Z,77.22
2023-03-15T04:48:03.973Z,76.63
2023-03-15T04:53:03.919Z,78.39
2023-03-15T04:54:03.910Z,78.25
2023-03-15T04:59:03.856Z,78.28
2023-03-15T05:00:03.847Z,77.45
2023-03-15T05:02:04.157Z,77.28
2023-03-15T05:03:03.812Z,77.97
2023-03-15T05:04:03.804Z,77.66
2023-03-15T05:05:03.821Z,76.80
2023-03-15T05:09:03.750Z,77.70
2023-03-15T05:10:03.735Z,78.21
2023-03-15T05:11:03.727Z,78.11
2023-03-15T05:12:03.713Z,78.32
2023-03-15T05:14:03.698Z,77.74
2023-03-15T05:17:03.664Z,79.59
2023-03-15T05:18:03.676Z,79.73
2023-03-15T05:21:03.636Z,81.01
2023-03-15T05:22:03.608Z,81.39
2023-03-15T05:27:03.554Z,79.35
2023-03-15T05:28:03.541Z,79.01
2023-03-15T05:29:03.534Z,78.35
2023-03-15T05:30:03.528Z,80.11
2023-03-15T05:31:03.509Z,80.63
2023-03-15T05:32:03.520Z,80.42
2023-03-15T05:33:03.488Z,79.59
2023-03-15T05:35:03.470Z,81.35
2023-03-15T05:36:03.456Z,79.52
2023-03-15T05:37:03.465Z,80.77
2023-03-15T05:38:03.433Z,81.45
2023-03-15T05:39:03.420Z,80.77
2023-03-15T05:40:03.410Z,81.70
2023-03-15T05:41:03.400Z,81.29
2023-03-15T05:42:03.387Z,80.35
2023-03-15T05:43:03.386Z,80.81
2023-03-15T05:44:03.365Z,80.91
2023-03-15T05:45:03.366Z,81.94
2023-03-15T05:49:03.315Z,82.98
2023-03-15T05:50:03.301Z,82.25
2023-03-15T05:51:03.291Z,82.36
2023-03-15T05:52:03.281Z,82.67
2023-03-15T05:53:03.290Z,81.64
2023-03-15T05:54:03.259Z,82.18
2023-03-15T06:00:03.191Z,82.01
2023-03-15T06:01:03.181Z,81.12
2023-03-15T06:08:03.103Z,80.25
2023-03-15T06:09:03.123Z,82.22
2023-03-15T06:10:03.098Z,82.08
2023-03-15T06:11:03.073Z,80.90
2023-03-15T06:12:03.058Z,80.42
2023-03-15T06:13:03.059Z,81.10
2023-03-15T06:14:03.060Z,80.01
2023-03-15T06:15:03.029Z,80.59
2023-03-15T06:16:03.015Z,79.18
2023-03-15T06:18:02.996Z,80.67
2023-03-15T06:19:02.985Z,81.29
2023-03-15T06:20:02.972Z,80.49
2023-03-15T06:23:02.941Z,81.01
2023-03-15T06:24:02.933Z,81.01
2023-03-15T06:25:02.944Z,81.84
2023-03-15T06:26:02.905Z,81.08
2023-03-15T06:27:02.902Z,80.67
2023-03-15T06:28:02.887Z,80.39
2023-03-15T06:31:02.893Z,81.26
2023-03-15T06:32:02.841Z,81.36
2023-03-15T06:33:02.937Z,81.57
2023-03-15T06:34:02.824Z,81.78
2023-03-15T06:35:02.811Z,82.46
2023-03-15T06:37:02.788Z,80.60
2023-03-15T06:38:02.786Z,80.87
2023-03-15T06:39:02.871Z,80.60
2023-03-15T06:41:02.765Z,80.49
2023-03-15T06:42:02.736Z,80.60
2023-03-15T06:43:02.725Z,81.32
2023-03-15T06:44:02.726Z,80.56
2023-03-15T06:45:02.701Z,80.15
2023-03-15T06:46:02.747Z,80.11
2023-03-15T06:47:02.687Z,79.52
2023-03-15T06:49:02.656Z,80.84
2023-03-15T06:50:02.671Z,79.56
2023-03-15T06:51:02.636Z,80.87
2023-03-15T06:52:02.634Z,80.46
2023-03-15T06:57:02.676Z,80.46
2023-03-15T06:58:02.561Z,79.84
2023-03-15T07:04:02.499Z,79.98
2023-03-15T07:05:02.506Z,79.84
2023-03-15T07:06:02.478Z,79.98
2023-03-15T07:07:02.469Z,80.98
2023-03-15T07:09:02.449Z,78.80
2023-03-15T07:10:02.450Z,79.46
2023-03-15T07:11:02.426Z,80.29
2023-03-15T07:12:02.416Z,79.59
2023-03-15T07:13:02.425Z,79.08
2023-03-15T07:14:02.392Z,79.59
2023-03-15T07:15:02.382Z,79.01
2023-03-15T07:16:02.422Z,77.97
2023-03-15T07:17:02.365Z,78.14
2023-03-15T07:18:02.352Z,76.94
2023-03-15T07:19:02.344Z,77.60
2023-03-15T07:20:02.341Z,77.94
2023-03-15T07:22:02.310Z,78.46
2023-03-15T07:23:02.296Z,78.18
2023-03-15T07:24:02.292Z,78.70
2023-03-15T07:25:02.288Z,79.29
2023-03-15T07:26:02.262Z,78.97
2023-03-15T07:27:02.258Z,78.52
2023-03-15T07:28:02.248Z,78.46
2023-03-15T07:29:02.265Z,78.46
2023-03-15T07:30:02.221Z,78.97
2023-03-15T07:32:02.268Z,78.94
2023-03-15T07:34:02.179Z,77.94
2023-03-15T07:37:02.150Z,76.80
2023-03-15T07:38:02.142Z,76.80
2023-03-15T07:39:02.126Z,76.04
2023-03-15T07:40:02.114Z,75.28
2023-03-15T07:41:02.103Z,75.25
2023-03-15T07:42:02.097Z,73.80
2023-03-15T07:43:02.082Z,73.67
2023-03-15T07:44:02.067Z,75.01
2023-03-15T07:45:02.081Z,75.08
2023-03-15T07:46:02.061Z,75.15
2023-03-15T07:47:02.047Z,75.97
2023-03-15T07:48:02.024Z,76.32
2023-03-15T07:49:02.013Z,77.31
2023-03-15T07:53:01.971Z,75.87
2023-03-15T07:54:01.960Z,76.31
2023-03-15T07:55:01.948Z,75.01
2023-03-15T07:56:01.936Z,75.49
2023-03-15T07:57:01.959Z,75.21
2023-03-15T07:58:01.914Z,76.70
2023-03-15T07:59:01.906Z,77.28
2023-03-15T08:00:01.930Z,76.56
2023-03-15T08:01:01.925Z,76.52
2023-03-15T08:02:03.185Z,75.84
2023-03-15T08:03:01.879Z,76.59
2023-03-15T08:04:01.850Z,76.59
2023-03-15T08:05:01.842Z,76.87
2023-03-15T08:06:01.829Z,76.45
2023-03-15T08:07:01.822Z,75.67
2023-03-15T08:08:01.808Z,76.08
2023-03-15T08:09:01.806Z,76.14
2023-03-15T08:10:01.800Z,75.42
2023-03-15T08:11:01.771Z,75.21
2023-03-15T08:12:01.760Z,75.84
2023-03-15T08:13:01.752Z,76.01
2023-03-15T08:14:01.738Z,75.21
2023-03-15T08:15:01.752Z,76.14
2023-03-15T08:16:01.795Z,76.45
2023-03-15T08:17:01.738Z,76.31
2023-03-15T08:18:01.709Z,75.42
2023-03-15T08:19:01.689Z,76.35
2023-03-15T08:20:01.676Z,75.90
2023-03-15T08:21:01.668Z,76.69
2023-03-15T08:22:01.654Z,74.01
2023-03-15T08:23:01.646Z,74.94
2023-03-15T08:24:01.639Z,74.67
2023-03-15T08:26:01.625Z,74.98
2023-03-15T08:27:01.602Z,75.49
2023-03-15T08:28:01.591Z,75.28
2023-03-15T08:29:01.578Z,76.38
2023-03-15T08:30:01.585Z,74.15
2023-03-15T08:31:01.558Z,75.18
2023-03-15T08:32:01.631Z,74.32
2023-03-15T08:33:01.653Z,73.33
2023-03-15T08:34:01.534Z,72.33
2023-03-15T08:35:01.521Z,71.85
2023-03-15T08:36:01.604Z,69.84
2023-03-15T08:37:01.509Z,68.26
2023-03-15T08:38:01.480Z,67.62
2023-03-15T08:39:01.483Z,68.29
2023-03-15T08:40:01.458Z,70.11
2023-03-15T08:41:01.452Z,69.56
2023-03-15T08:42:01.443Z,68.94
2023-03-15T08:43:01.430Z,69.36
2023-03-15T08:44:01.418Z,69.46
2023-03-15T08:45:01.404Z,70.45
2023-03-15T08:46:02.154Z,70.69
2023-03-15T08:47:01.406Z,69.83
2023-03-15T08:48:01.372Z,70.34
2023-03-15T08:49:01.388Z,69.83
2023-03-15T08:50:01.351Z,69.31
2023-03-15T08:51:01.338Z,70.24
2023-03-15T08:54:01.311Z,74.08
2023-03-15T08:55:01.308Z,73.70
2023-03-15T08:56:01.287Z,73.29
2023-03-15T08:58:02.002Z,73.15
2023-03-15T08:59:01.247Z,75.15
2023-03-15T09:00:01.238Z,73.40
2023-03-15T09:01:01.226Z,73.60
2023-03-15T09:02:01.413Z,73.57
2023-03-15T09:04:01.278Z,71.92
2023-03-15T09:05:01.203Z,72.98
2023-03-15T09:09:01.139Z,71.82
2023-03-15T09:10:03.444Z,70.44
2023-03-15T09:11:01.136Z,71.64
2023-03-15T09:12:01.117Z,72.26
2023-03-15T09:13:01.099Z,71.47
2023-03-15T09:14:01.087Z,69.79
2023-03-15T09:15:01.074Z,69.25
2023-03-15T09:16:01.058Z,68.53
2023-03-15T09:17:01.098Z,68.77
2023-03-15T09:18:01.035Z,66.04
2023-03-15T09:19:01.026Z,65.01
2023-03-15T09:20:01.018Z,64.36
2023-03-15T09:21:01.064Z,65.53
2023-03-15T09:22:15.865Z,62.73
2023-03-15T09:23:00.986Z,62.32
2023-03-15T09:24:00.990Z,64.14
2023-03-15T09:25:00.970Z,63.29
2023-03-15T09:26:00.957Z,61.45
2023-03-15T09:27:00.954Z,61.68
2023-03-15T09:28:00.936Z,61.30
2023-03-15T09:29:00.932Z,62.48
2023-03-15T09:30:00.934Z,61.95
2023-03-15T09:31:00.936Z,62.04
2023-03-15T09:34:00.877Z,62.73
2023-03-15T09:35:00.861Z,61.52
2023-03-15T09:36:00.924Z,61.66
2023-03-15T09:37:00.872Z,60.00
2023-03-15T09:38:00.834Z,58.67
2023-03-15T09:39:00.825Z,58.52
2023-03-15T09:40:00.807Z,58.60
2023-03-15T09:41:00.793Z,58.19
2023-03-15T09:42:00.784Z,58.09
2023-03-15T09:43:00.786Z,60.66
2023-03-15T09:44:00.766Z,61.27
2023-03-15T09:45:00.764Z,61.53
2023-03-15T09:46:00.832Z,61.37
2023-03-15T09:47:00.735Z,60.98
2023-03-15T09:48:00.720Z,59.93
2023-03-15T09:49:00.713Z,59.95
2023-03-15T09:50:00.706Z,56.89
2023-03-15T09:51:00.686Z,58.02
2023-03-15T09:52:00.680Z,58.14
2023-03-15T09:53:00.693Z,57.94
2023-03-15T09:54:00.655Z,60.19
2023-03-15T09:55:00.643Z,58.86
2023-03-15T09:56:00.638Z,59.99
2023-03-15T09:57:00.621Z,56.93
2023-03-15T09:58:00.613Z,59.35
2023-03-15T09:59:00.601Z,57.63
2023-03-15T10:00:00.604Z,59.25
2023-03-15T10:01:00.577Z,59.97
2023-03-15T10:02:00.630Z,61.42
2023-03-15T10:03:00.560Z,58.86
2023-03-15T10:04:00.620Z,59.32
2023-03-15T10:05:00.534Z,61.17
2023-03-15T10:07:00.524Z,59.50
2023-03-15T10:08:00.506Z,57.83
2023-03-15T10:09:00.527Z,57.53
2023-03-15T10:10:00.481Z,57.91
2023-03-15T10:11:00.470Z,59.65
2023-03-15T10:12:00.476Z,58.09
2023-03-15T10:13:00.451Z,58.02
2023-03-15T10:14:00.443Z,57.17
2023-03-15T10:15:00.432Z,57.01
2023-03-15T10:16:00.468Z,56.78
2023-03-15T10:17:00.408Z,55.27
2023-03-15T10:18:00.408Z,56.56
2023-03-15T10:19:00.389Z,57.45
2023-03-15T10:20:00.375Z,57.17
2023-03-15T10:22:00.360Z,56.94
2023-03-15T10:23:00.353Z,59.58
2023-03-15T10:24:00.334Z,56.35
2023-03-15T10:25:00.347Z,57.12
2023-03-15T10:26:00.312Z,57.48
2023-03-15T10:27:00.307Z,58.50
2023-03-15T10:28:00.287Z,58.56
2023-03-15T10:29:00.296Z,59.71
2023-03-15T10:30:00.271Z,58.77
2023-03-15T10:31:00.353Z,57.53
2023-03-15T10:32:00.291Z,58.05
2023-03-15T10:33:00.281Z,57.56
2023-03-15T10:35:00.204Z,56.73
2023-03-15T10:36:10.682Z,55.53
2023-03-15T10:37:00.185Z,53.33
2023-03-15T10:39:00.161Z,52.19
2023-03-15T10:40:00.167Z,54.41
2023-03-15T10:44:00.162Z,56.84
2023-03-15T10:45:00.154Z,55.81
2023-03-15T10:46:00.091Z,55.25
2023-03-15T10:47:02.996Z,53.84
2023-03-15T10:48:01.121Z,54.71
2023-03-15T10:49:00.061Z,51.87
2023-03-15T10:50:00.087Z,52.16
2023-03-15T10:54:00.081Z,50.07
2023-03-15T10:55:59.974Z,51.52
2023-03-15T10:56:59.990Z,49.64
2023-03-15T10:57:59.982Z,49.15
2023-03-15T10:59:11.880Z,47.01
2023-03-15T11:00:00.960Z,45.84
2023-03-15T11:01:59.963Z,44.68
2023-03-15T11:02:59.948Z,47.35
2023-03-15T11:03:59.893Z,47.99
2023-03-15T11:04:59.898Z,47.54
2023-03-15T11:05:59.868Z,46.61
2023-03-15T11:06:59.853Z,47.47
2023-03-15T11:07:59.846Z,49.45
2023-03-15T11:08:59.831Z,46.10
2023-03-15T11:09:59.829Z,48.40
2023-03-15T11:10:59.806Z,48.62
2023-03-15T11:11:59.811Z,50.57
2023-03-15T11:13:59.780Z,49.87
2023-03-15T11:14:59.765Z,50.64
2023-03-15T11:15:59.818Z,48.86
2023-03-15T11:16:59.743Z,47.53
2023-03-15T11:17:59.732Z,48.08
2023-03-15T11:18:59.729Z,46.02
2023-03-15T11:19:59.726Z,44.75
2023-03-15T11:20:59.703Z,43.75
2023-03-15T11:21:59.690Z,41.83
2023-03-15T11:22:59.682Z,42.85
2023-03-15T11:23:59.671Z,42.73
2023-03-15T11:24:59.743Z,42.55
2023-03-15T11:25:59.656Z,43.95
2023-03-15T11:26:59.636Z,45.84
2023-03-15T11:27:59.627Z,43.77
2023-03-15T11:29:59.629Z,45.83
2023-03-15T11:30:59.595Z,48.02
2023-03-15T11:31:59.587Z,46.65
2023-03-15T11:32:59.732Z,46.96
2023-03-15T11:33:59.567Z,49.54
2023-03-15T11:35:59.566Z,48.68
2023-03-15T11:37:08.078Z,49.32
2023-03-15T11:38:13.002Z,48.70
2023-03-15T11:42:59.466Z,46.74
2023-03-15T11:43:59.463Z,45.59
2023-03-15T11:44:59.475Z,47.33
2023-03-15T11:45:59.499Z,46.94
2023-03-15T11:46:59.478Z,49.24
2023-03-15T11:47:59.429Z,50.67
2023-03-15T11:48:59.397Z,48.57
2023-03-15T11:49:59.387Z,50.66
2023-03-15T11:50:59.387Z,49.45
2023-03-15T11:52:59.375Z,48.87
2023-03-15T11:53:59.347Z,48.44
2023-03-15T11:54:59.333Z,50.18
2023-03-15T11:55:59.325Z,48.28
2023-03-15T11:56:59.307Z,49.01
2023-03-15T11:57:59.309Z,45.93
2023-03-15T12:00:59.292Z,41.60
2023-03-15T12:02:59.277Z,39.34
2023-03-15T12:05:06.251Z,36.98
2023-03-15T12:05:59.216Z,36.12
2023-03-15T12:06:59.208Z,37.64
2023-03-15T12:07:59.193Z,36.98
2023-03-15T12:08:59.178Z,38.32
2023-03-15T12:09:59.168Z,38.52
2023-03-15T12:10:59.158Z,37.71
2023-03-15T12:11:59.151Z,35.20
2023-03-15T12:12:59.136Z,37.95
2023-03-15T12:13:59.128Z,36.96
2023-03-15T12:14:59.121Z,34.56
2023-03-15T12:15:59.105Z,34.04
2023-03-15T12:17:59.082Z,35.72
2023-03-15T12:18:59.072Z,35.93
2023-03-15T12:19:59.061Z,34.83
2023-03-15T12:20:59.047Z,36.08
2023-03-15T12:21:59.040Z,37.15
2023-03-15T12:22:59.026Z,37.13
2023-03-15T12:23:59.017Z,40.22
2023-03-15T12:24:59.004Z,42.91
2023-03-15T12:25:58.998Z,41.97
2023-03-15T12:26:58.983Z,42.36
2023-03-15T12:27:58.998Z,40.20
2023-03-15T12:28:58.962Z,42.77
2023-03-15T12:29:58.952Z,43.56
2023-03-15T12:30:58.983Z,41.89
2023-03-15T12:31:58.928Z,40.97
2023-03-15T12:32:58.969Z,38.77
2023-03-15T12:33:58.904Z,39.55
2023-03-15T12:36:58.869Z,37.75
2023-03-15T12:37:58.865Z,39.86
2023-03-15T12:38:58.846Z,38.27
2023-03-15T12:39:58.839Z,42.26
2023-03-15T12:40:58.831Z,40.57
2023-03-15T12:42:58.806Z,39.76
2023-03-15T12:43:58.793Z,38.28
2023-03-15T12:44:58.781Z,38.92
2023-03-15T12:45:58.805Z,35.08
2023-03-15T12:46:58.765Z,35.30
2023-03-15T12:47:58.751Z,36.69
2023-03-15T12:48:58.763Z,37.10
2023-03-15T12:49:58.732Z,37.96
2023-03-15T12:50:58.716Z,40.06
2023-03-15T12:51:59.510Z,40.22
2023-03-15T12:52:58.695Z,40.29
2023-03-15T12:53:58.685Z,40.47
2023-03-15T12:54:58.677Z,42.18
2023-03-15T12:56:58.652Z,36.40
2023-03-15T12:57:58.643Z,35.79
2023-03-15T12:58:58.632Z,38.67
2023-03-15T12:59:58.620Z,41.36
2023-03-15T13:00:58.613Z,41.58
2023-03-15T13:01:58.607Z,42.44
2023-03-15T13:03:00.328Z,43.06
2023-03-15T13:03:58.580Z,41.72
2023-03-15T13:04:58.595Z,37.02
2023-03-15T13:06:03.758Z,37.56
2023-03-15T13:06:58.542Z,33.60
2023-03-15T13:07:58.536Z,32.95
2023-03-15T13:08:58.521Z,32.58
2023-03-15T13:11:58.506Z,29.77
2023-03-15T13:12:58.478Z,31.33
2023-03-15T13:13:58.474Z,33.02
2023-03-15T13:15:58.523Z,34.00
2023-03-15T13:16:58.435Z,34.00
2023-03-15T13:17:58.424Z,33.65
2023-03-15T13:20:58.415Z,35.54
2023-03-15T13:21:58.380Z,37.13
2023-03-15T13:22:58.369Z,35.54
2023-03-15T13:23:58.359Z,34.98
2023-03-15T13:24:58.347Z,33.95
2023-03-15T13:25:58.337Z,34.82
2023-03-15T13:26:58.324Z,33.80
2023-03-15T13:27:58.321Z,35.08
2023-03-15T13:29:58.293Z,33.42
2023-03-15T13:30:58.318Z,35.54
2023-03-15T13:31:58.270Z,34.91
2023-03-15T13:32:58.330Z,32.87
2023-03-15T13:33:58.248Z,34.63
2023-03-15T13:34:58.237Z,32.64
2023-03-15T13:35:58.250Z,33.35
2023-03-15T13:36:58.244Z,33.00
2023-03-15T13:37:58.203Z,32.40
2023-03-15T13:38:58.197Z,32.77
2023-03-15T13:40:58.176Z,35.54
2023-03-15T13:41:58.171Z,34.72
2023-03-15T13:42:58.151Z,33.78
2023-03-15T13:43:58.139Z,32.19
2023-03-15T13:44:58.133Z,33.88
2023-03-15T13:45:58.117Z,31.04
2023-03-15T13:46:58.146Z,31.42
2023-03-15T13:47:58.099Z,30.82
2023-03-15T13:48:58.085Z,30.42
2023-03-15T13:50:58.071Z,31.10
2023-03-15T13:51:58.050Z,32.20
2023-03-15T13:52:58.074Z,32.29
2023-03-15T13:53:58.029Z,33.56
2023-03-15T13:54:58.034Z,32.25
2023-03-15T13:55:58.010Z,33.09
2023-03-15T13:56:58.005Z,34.08
2023-03-15T13:57:57.990Z,35.51
2023-03-15T13:58:57.980Z,35.91
2023-03-15T13:59:57.976Z,33.78
2023-03-15T14:00:57.971Z,34.89
2023-03-15T14:01:57.995Z,34.32
2023-03-15T14:02:57.971Z,34.78
2023-03-15T14:03:57.923Z,35.47
2023-03-15T14:05:57.901Z,34.54
2023-03-15T14:08:57.890Z,32.58
2023-03-15T14:09:57.858Z,32.85
2023-03-15T14:10:57.848Z,32.59
2023-03-15T14:11:57.839Z,31.89
2023-03-15T14:12:57.833Z,31.48
2023-03-15T14:13:57.815Z,32.97
2023-03-15T14:14:57.812Z,32.58
2023-03-15T14:15:57.888Z,33.41
2023-03-15T14:17:05.284Z,34.10
2023-03-15T14:17:57.772Z,34.71
2023-03-15T14:18:57.764Z,32.71
2023-03-15T14:19:57.752Z,33.95
2023-03-15T14:20:57.742Z,33.45
2023-03-15T14:21:57.730Z,33.27
2023-03-15T14:22:57.724Z,35.78
2023-03-15T14:23:57.716Z,32.22
2023-03-15T14:24:57.721Z,31.92
2023-03-15T14:25:57.690Z,31.94
2023-03-15T14:26:57.683Z,32.44
2023-03-15T14:27:57.663Z,32.31
2023-03-15T14:28:57.654Z,31.56
2023-03-15T14:29:57.671Z,30.54
2023-03-15T14:30:57.651Z,30.10
2023-03-15T14:31:57.622Z,31.42
2023-03-15T14:32:57.735Z,29.43
2023-03-15T14:33:57.600Z,31.74
2023-03-15T14:34:57.595Z,31.09
2023-03-15T14:35:57.622Z,30.97
2023-03-15T14:38:57.553Z,30.91
2023-03-15T14:39:57.534Z,31.39
2023-03-15T14:40:57.545Z,33.79
2023-03-15T14:41:57.517Z,36.29
2023-03-15T14:42:57.501Z,34.47
2023-03-15T14:43:57.490Z,34.44
2023-03-15T14:44:57.480Z,34.10
2023-03-15T14:45:57.513Z,33.83
2023-03-15T14:46:57.469Z,33.91
2023-03-15T14:47:58.044Z,34.32
2023-03-15T14:48:57.438Z,31.81
2023-03-15T14:49:57.421Z,33.22
2023-03-15T14:50:57.413Z,31.59
2023-03-15T14:55:57.361Z,29.77
2023-03-15T14:56:57.373Z,28.32
2023-03-15T14:57:57.335Z,29.45
2023-03-15T14:58:57.326Z,31.39
2023-03-15T14:59:57.313Z,30.58
2023-03-15T15:00:57.329Z,32.20
2023-03-15T15:01:57.358Z,31.30
2023-03-15T15:08:57.221Z,30.74
2023-03-15T15:09:57.208Z,31.98
2023-03-15T15:10:57.196Z,30.16
2023-03-15T15:13:06.030Z,32.32
2023-03-15T15:16:57.256Z,31.94
2023-03-15T15:17:57.115Z,32.04
2023-03-15T15:18:57.105Z,32.73
2023-03-15T15:19:57.093Z,31.96
2023-03-15T15:24:57.039Z,34.58
2023-03-15T15:25:57.025Z,37.76
2023-03-15T15:27:57.006Z,40.93
2023-03-15T15:28:57.034Z,41.29
2023-03-15T15:29:56.984Z,42.81
2023-03-15T15:30:56.975Z,40.11
2023-03-15T15:31:56.997Z,39.05
2023-03-15T15:32:56.994Z,40.54
2023-03-15T15:33:56.998Z,38.07
2023-03-15T15:34:56.928Z,36.78
2023-03-15T15:35:56.968Z,38.51
2023-03-15T15:36:56.914Z,37.50
2023-03-15T15:37:56.896Z,40.13
2023-03-15T15:38:56.880Z,37.35
2023-03-15T15:39:56.869Z,36.66
2023-03-15T15:40:56.861Z,36.96
2023-03-15T15:41:56.858Z,37.17
2023-03-15T15:43:56.826Z,37.70
2023-03-15T15:44:56.843Z,38.99
2023-03-15T15:45:56.830Z,38.69
2023-03-15T15:46:56.795Z,36.79
2023-03-15T15:47:56.786Z,35.88
2023-03-15T15:48:56.774Z,37.61
2023-03-15T15:49:56.771Z,35.98
2023-03-15T15:50:56.753Z,37.32
2023-03-15T15:51:56.738Z,37.83
2023-03-15T15:52:56.729Z,36.39
2023-03-15T15:53:56.717Z,35.25
2023-03-15T15:54:56.766Z,34.93
2023-03-15T15:55:56.692Z,34.20
2023-03-15T15:56:56.689Z,35.44
2023-03-15T15:57:56.677Z,35.33
2023-03-15T15:58:56.663Z,34.11
2023-03-15T15:59:56.653Z,33.79
2023-03-15T16:00:56.708Z,33.57
2023-03-15T16:02:01.672Z,34.22
2023-03-15T16:02:56.721Z,34.42
2023-03-15T16:03:56.607Z,35.54
2023-03-15T16:04:56.600Z,34.30
2023-03-15T16:05:56.583Z,34.59
2023-03-15T16:06:56.581Z,35.61
2023-03-15T16:07:56.561Z,36.25
2023-03-15T16:08:56.562Z,36.37